Time;durP1;ratioP1;P1;durP2;ratioP2;P2;SDS_P1;SDS_P2;PMS_P1;PMS_P2;Temp;Humidity;BMP_temperature;BMP_pressure;BME280_temperature;BME280_humidity;BME280_pressure;Samples;Min_cycle;Max_cycle;Signal;HPM_P1;HPM_P2
2023/05/01 00:05:31;;;;;;;1.00;0.70;;;;;;;;;;20976713;28;20575;-80
2023/05/01 00:15:32;;;;;;;2.13;0.80;;;;;;;;;;20982920;28;20221;-79
2023/05/01 00:25:34;;;;;;;0.80;0.60;;;;;;;;;;20980582;28;20282;-82
2023/05/01 00:35:37;;;;;;;0.80;0.50;;;;;;;;;;20980048;28;20233;-82
2023/05/01 00:45:40;;;;;;;0.67;0.60;;;;;;;;;;20977770;28;20239;-82
2023/05/01 00:55:42;;;;;;;1.20;0.70;;;;;;;;;;20994229;28;20275;-82
2023/05/01 01:06:14;;;;;;;0.70;0.60;;;15.20;99.90;;;;;;20994566;28;20189;-82
2023/05/01 01:16:26;;;;;;;0.80;0.60;;;15.10;99.90;;;;;;20990192;28;20298;-82
2023/05/01 01:26:31;;;;;;;1.10;0.73;;;;;;;;;;21015429;28;20270;-80
2023/05/01 01:36:33;;;;;;;0.93;0.60;;;;;;;;;;20992491;28;20263;-81
2023/05/01 01:46:37;;;;;;;1.10;0.80;;;;;;;;;;20992648;28;20285;-81
2023/05/01 01:56:41;;;;;;;0.70;0.50;;;;;;;;;;20973691;28;20225;-80
2023/05/01 02:06:44;;;;;;;1.07;0.70;;;;;;;;;;20960076;28;20243;-81
2023/05/01 02:16:46;;;;;;;0.70;0.60;;;14.70;99.90;;;;;;20964223;28;20228;-80
2023/05/01 02:26:55;;;;;;;2.00;0.50;;;14.50;99.90;;;;;;20971679;28;20286;-80
2023/05/01 02:36:57;;;;;;;0.80;0.50;;;;;;;;;;20986853;28;20589;-81
2023/05/01 02:46:59;;;;;;;1.00;0.60;;;14.20;99.90;;;;;;20988007;28;20205;-81
2023/05/01 02:57:04;;;;;;;0.63;0.50;;;;;;;;;;20959529;28;20230;-82
2023/05/01 03:07:06;;;;;;;0.53;0.40;;;;;;;;;;20894618;28;20221;-81
2023/05/01 03:17:07;;;;;;;0.77;0.50;;;;;;;;;;20903212;28;20661;-80
2023/05/01 03:27:09;;;;;;;2.80;0.73;;;;;;;;;;20919408;28;20218;-81
2023/05/01 03:37:11;;;;;;;0.70;0.40;;;;;;;;;;20919905;28;20772;-82
2023/05/01 03:47:13;;;;;;;1.77;0.67;;;;;;;;;;20920235;28;20590;-81
2023/05/01 03:57:16;;;;;;;1.83;0.63;;;;;;;;;;20923069;28;20696;-80
2023/05/01 04:07:18;;;;;;;0.80;0.53;;;;;;;;;;20971011;28;20222;-80
2023/05/01 04:17:22;;;;;;;0.90;0.57;;;;;;;;;;20928660;28;20267;-80
2023/05/01 04:27:24;;;;;;;1.53;0.83;;;;;;;;;;20997815;28;20213;-80
2023/05/01 04:37:26;;;;;;;0.67;0.50;;;;;;;;;;20992611;28;20263;-80
2023/05/01 04:47:28;;;;;;;1.60;0.70;;;;;;;;;;20963676;28;20568;-80
2023/05/01 04:57:30;;;;;;;1.10;0.50;;;;;;;;;;20995458;28;20605;-80
2023/05/01 05:07:31;;;;;;;1.20;0.70;;;;;;;;;;20977880;28;20267;-80
2023/05/01 05:17:56;;;;;;;0.93;0.70;;;;;;;;;;20989158;28;20596;-80
2023/05/01 05:27:59;;;;;;;1.43;0.70;;;14.00;99.90;;;;;;20976293;28;20222;-79
2023/05/01 05:38:01;;;;;;;2.13;0.90;;;;;;;;;;20975432;28;20283;-81
2023/05/01 05:48:05;;;;;;;1.17;0.60;;;;;;;;;;20990986;28;20213;-81
2023/05/01 05:58:10;;;;;;;0.97;0.70;;;;;;;;;;20990726;28;20711;-80
2023/05/01 06:08:13;;;;;;;0.80;0.60;;;;;;;;;;20989883;28;20267;-80
2023/05/01 06:18:15;;;;;;;1.27;0.80;;;;;;;;;;21012627;28;20279;-80
2023/05/01 06:28:17;;;;;;;1.10;0.60;;;;;;;;;;20987590;28;20239;-80
2023/05/01 06:38:19;;;;;;;1.17;0.70;;;;;;;;;;20988741;28;20233;-80
2023/05/01 06:48:21;;;;;;;1.43;0.70;;;;;;;;;;20908311;28;20277;-80
2023/05/01 06:58:22;;;;;;;1.10;0.60;;;;;;;;;;20921400;28;20259;-80
2023/05/01 07:08:26;;;;;;;2.10;0.70;;;;;;;;;;20858615;28;20260;-81
2023/05/01 07:18:28;;;;;;;2.10;0.70;;;;;;;;;;20878766;28;20225;-80
2023/05/01 07:28:30;;;;;;;2.17;0.90;;;;;;;;;;20862953;28;20261;-81
2023/05/01 07:38:32;;;;;;;1.67;0.90;;;;;;;;;;20832602;28;20257;-81
2023/05/01 07:48:34;;;;;;;2.10;1.23;;;;;;;;;;20831497;28;20219;-80
2023/05/01 07:58:36;;;;;;;2.30;1.10;;;15.90;99.90;;;;;;20854248;28;20292;-81
2023/05/01 08:08:37;;;;;;;1.90;0.90;;;;;;;;;;20937849;28;20229;-81
2023/05/01 08:18:39;;;;;;;1.93;1.00;;;;;;;;;;20924916;28;20315;-81
2023/05/01 08:28:41;;;;;;;1.43;1.00;;;;;;;;;;20963852;28;20316;-81
2023/05/01 08:38:43;;;;;;;1.23;0.80;;;;;;;;;;20976751;28;20225;-81
2023/05/01 08:48:45;;;;;;;1.70;0.93;;;;;;;;;;20981661;28;20209;-81
2023/05/01 08:58:49;;;;;;;1.83;1.00;;;;;;;;;;20844315;28;20226;-82
2023/05/01 09:08:51;;;;;;;2.77;1.20;;;;;;;;;;20865244;28;20279;-81
2023/05/01 09:18:52;;;;;;;1.80;1.07;;;;;;;;;;20882750;28;20221;-83
2023/05/01 09:28:58;;;;;;;1.57;0.70;;;;;;;;;;20982708;28;20229;-80
2023/05/01 09:39:00;;;;;;;1.40;0.90;;;;;;;;;;21026090;28;20274;-81
2023/05/01 09:49:02;;;;;;;2.03;1.00;;;;;;;;;;21009940;28;20643;-81
2023/05/01 09:59:18;;;;;;;1.50;1.00;;;18.50;99.90;;;;;;20993213;28;20748;-81
2023/05/01 10:09:29;;;;;;;3.07;1.10;;;;;;;;;;20973834;28;20209;-81
2023/05/01 10:19:32;;;;;;;1.37;0.90;;;;;;;;;;20990877;28;20228;-82
2023/05/01 10:29:35;;;;;;;1.77;1.13;;;18.40;99.90;;;;;;20972183;28;20275;-82
2023/05/01 10:39:37;;;;;;;1.80;1.07;;;;;;;;;;20989294;28;20286;-82
2023/05/01 10:50:08;;;;;;;3.50;1.30;;;18.60;99.90;;;;;;20988537;28;20286;-82
2023/05/01 11:00:10;;;;;;;2.80;0.90;;;;;;;;;;20987973;28;20282;-82
2023/05/01 11:10:25;;;;;;;2.70;1.00;;;;;;;;;;21008785;28;20262;-83
2023/05/01 11:20:28;;;;;;;2.23;1.23;;;;;;;;;;20986587;28;20225;-82
2023/05/01 11:30:39;;;;;;;1.07;0.70;;;;;;;;;;20996617;28;20213;-83
2023/05/01 11:40:41;;;;;;;1.70;1.10;;;;;;;;;;21003930;28;20259;-82
2023/05/01 11:50:42;;;;;;;1.37;0.90;;;;;;;;;;21000311;28;20232;-82
2023/05/01 12:00:44;;;;;;;1.63;1.10;;;;;;;;;;21000360;28;20282;-83
2023/05/01 12:10:56;;;;;;;1.43;0.97;;;19.60;99.90;;;;;;20998622;28;20206;-82
2023/05/01 12:20:58;;;;;;;1.10;0.83;;;;;;;;;;20999979;28;20224;-83
2023/05/01 12:31:01;;;;;;;1.10;0.90;;;;;;;;;;20999494;28;20255;-83
2023/05/01 12:41:05;;;;;;;1.67;1.00;;;;;;;;;;21008048;28;20213;-82
2023/05/01 12:51:07;;;;;;;1.60;0.90;;;;;;;;;;21011174;28;20236;-82
2023/05/01 13:01:09;;;;;;;1.93;1.10;;;;;;;;;;20995870;28;20217;-82
2023/05/01 13:11:11;;;;;;;1.00;0.80;;;;;;;;;;20978218;28;20251;-83
2023/05/01 13:21:14;;;;;;;2.90;0.90;;;;;;;;;;20994162;28;20266;-83
2023/05/01 13:31:16;;;;;;;1.00;0.80;;;;;;;;;;20977227;28;20282;-82
2023/05/01 13:41:19;;;;;;;1.40;0.90;;;18.90;99.90;;;;;;20992803;28;20205;-83
2023/05/01 13:51:23;;;;;;;1.00;0.63;;;;;;;;;;20990707;28;20251;-83
2023/05/01 14:01:24;;;;;;;1.43;0.83;;;;;;;;;;20993117;28;20202;-83
2023/05/01 14:11:26;;;;;;;1.60;0.80;;;;;;;;;;20990370;28;20712;-83
2023/05/01 14:21:28;;;;;;;1.00;0.80;;;;;;;;;;21015679;28;20234;-82
2023/05/01 14:31:30;;;;;;;0.73;0.50;;;;;;;;;;20990670;28;20711;-83
2023/05/01 14:41:37;;;;;;;1.73;0.97;;;;;;;;;;20957235;28;20218;-83
2023/05/01 14:51:40;;;;;;;1.07;0.67;;;;;;;;;;20988433;28;20230;-82
2023/05/01 15:01:44;;;;;;;1.13;0.77;;;;;;;;;;20988532;28;20708;-82
2023/05/01 15:11:46;;;;;;;1.47;0.90;;;;;;;;;;20999323;28;20225;-82
2023/05/01 15:21:48;;;;;;;0.83;0.80;;;;;;;;;;21030722;28;20226;-83
2023/05/01 15:31:50;;;;;;;1.60;1.03;;;;;;;;;;20973375;28;20291;-82
2023/05/01 15:41:52;;;;;;;0.97;0.70;;;;;;;;;;20987409;28;20221;-82
2023/05/01 15:51:53;;;;;;;1.23;0.90;;;;;;;;;;20986084;28;20230;-82
2023/05/01 16:01:55;;;;;;;0.73;0.53;;;19.20;99.90;;;;;;21010718;28;20636;-83
2023/05/01 16:11:58;;;;;;;1.27;0.80;;;;;;;;;;20988154;28;20575;-82
2023/05/01 16:22:02;;;;;;;0.90;0.70;;;19.00;99.90;;;;;;20999175;28;20283;-83
2023/05/01 16:32:04;;;;;;;1.63;0.90;;;18.80;99.90;;;;;;20999477;28;20271;-83
2023/05/01 16:42:06;;;;;;;1.77;1.07;;;;;;;;;;20997796;28;20266;-83
2023/05/01 16:52:12;;;;;;;1.43;1.00;;;;;;;;;;20996916;28;20248;-83
2023/05/01 17:02:14;;;;;;;1.50;0.83;;;;;;;;;;20998541;28;20530;-83
2023/05/01 17:12:16;;;;;;;1.30;0.90;;;;;;;;;;20995233;28;20233;-83
2023/05/01 17:22:17;;;;;;;1.17;0.67;;;;;;;;;;20991390;28;20229;-82
2023/05/01 17:32:19;;;;;;;1.63;0.87;;;;;;;;;;20999268;28;20266;-82
2023/05/01 17:42:21;;;;;;;1.03;0.60;;;;;;;;;;20988784;28;20217;-82
2023/05/01 17:52:22;;;;;;;0.97;0.53;;;;;;;;;;20988286;28;20247;-82
2023/05/01 18:02:28;;;;;;;1.10;0.70;;;;;;;;;;20906751;28;20268;-82
2023/05/01 18:12:30;;;;;;;3.83;0.60;;;;;;;;;;20891042;28;20527;-82
2023/05/01 18:22:33;;;;;;;0.73;0.50;;;;;;;;;;20867494;28;1130332;-82
2023/05/01 18:32:35;;;;;;;0.87;0.60;;;;;;;;;;20939257;28;20237;-82
2023/05/01 18:42:36;;;;;;;0.67;0.50;;;;;;;;;;20975452;28;20741;-82
2023/05/01 18:52:40;;;;;;;1.30;0.60;;;;;;;;;;20935536;28;20292;-82
2023/05/01 19:02:45;;;;;;;0.57;0.50;;;17.80;99.90;;;;;;20910924;28;20213;-81
2023/05/01 19:12:47;;;;;;;1.97;0.70;;;;;;;;;;20940026;28;20217;-82
2023/05/01 19:22:48;;;;;;;0.87;0.57;;;;;;;;;;20907727;28;20220;-81
2023/05/01 19:32:50;;;;;;;0.40;0.40;;;;;;;;;;20944110;28;20260;-82
2023/05/01 19:42:52;;;;;;;0.60;0.50;;;;;;;;;;20925387;28;20645;-82
2023/05/01 19:52:54;;;;;;;0.60;0.50;;;;;;;;;;20897646;28;20702;-80
2023/05/01 20:02:56;;;;;;;0.80;0.60;;;;;;;;;;20947619;28;20767;-82
2023/05/01 20:12:58;;;;;;;0.60;0.50;;;;;;;;;;20931970;28;20222;-81
2023/05/01 20:23:13;;;;;;;0.50;0.40;;;;;;;;;;20923972;28;20279;-81
2023/05/01 20:33:16;;;;;;;0.73;0.60;;;;;;;;;;20939673;28;20633;-81
2023/05/01 20:43:18;;;;;;;0.60;0.43;;;;;;;;;;20958254;28;20194;-82
2023/05/01 20:53:19;;;;;;;0.90;0.50;;;;;;;;;;20943982;28;20788;-81
2023/05/01 21:03:21;;;;;;;0.93;0.40;;;;;;;;;;20929389;28;20214;-81
2023/05/01 21:13:23;;;;;;;0.60;0.50;;;;;;;;;;20933315;28;20234;-82
2023/05/01 21:23:25;;;;;;;0.40;0.40;;;16.80;99.90;;;;;;20927908;28;20296;-81
2023/05/01 21:33:27;;;;;;;1.13;0.73;;;;;;;;;;20907296;28;20246;-81
2023/05/01 21:43:32;;;;;;;1.20;0.60;;;;;;;;;;20840401;28;20683;-81
2023/05/01 21:53:33;;;;;;;0.57;0.50;;;;;;;;;;20889745;28;20225;-80
2023/05/01 22:03:39;;;;;;;1.30;0.90;;;;;;;;;;20913019;28;20259;-80
2023/05/01 22:13:40;;;;;;;0.80;0.67;;;;;;;;;;20951154;28;20263;-80
2023/05/01 22:23:42;;;;;;;0.67;0.50;;;;;;;;;;21000708;28;20694;-79
2023/05/01 22:33:44;;;;;;;0.80;0.60;;;;;;;;;;21006838;28;20237;-81
2023/05/01 22:43:46;;;;;;;0.97;0.60;;;;;;;;;;20975429;28;20539;-80
2023/05/01 22:53:48;;;;;;;0.67;0.60;;;;;;;;;;20991502;28;20229;-80
2023/05/01 23:03:49;;;;;;;2.60;0.70;;;16.10;99.90;;;;;;20991565;28;20198;-80
2023/05/01 23:13:51;;;;;;;2.20;0.90;;;;;;;;;;20997208;28;20229;-80
2023/05/01 23:23:53;;;;;;;1.07;0.63;;;;;;;;;;20995478;28;20233;-81
2023/05/01 23:33:55;;;;;;;1.20;0.60;;;;;;;;;;21006519;28;20220;-81
2023/05/01 23:43:56;;;;;;;0.60;0.53;;;;;;;;;;20925652;28;20585;-81
2023/05/01 23:53:58;;;;;;;1.00;0.70;;;;;;;;;;20904169;28;20225;-82
